HAZ2155 ZSHC-ZSCN
Flight info
| Callsign | HAZ2155 |
|---|---|
| Flight time | 1h 29m |
| Altitude | 27600 |
| Route | NIVIK5E NIVIK W135 GOSRO W546 OREVO W164 VILID V65 IKUBA W50 XSH W105 LAPEN LAP91A |
| Aircraft | B739/M-SDE2E3FGHIRWXY/LB1 |
Departure
| Time | 2026-04-16 03:13 |
|---|---|
| Airport | Hangzhou Xiaoshan International Airport (ZSHC) |
Arrival
| Time | 2026-04-16 04:43 |
|---|---|
| Airport | Nanchang Changbei International Airport (ZSCN) |
| Time | Latitude | Longitude | Altitude | Speed | Heading |
|---|---|---|---|---|---|
| 2026-04-16 02:48 | 30.24275 | 120.41856 | 28 ft | 0 kts | 231° |
| 2026-04-16 02:49 | 30.23810 | 120.42082 | 28 ft | 0 kts | 231° |
| 2026-04-16 02:56 | 30.23812 | 120.42085 | 28 ft | 2 kts | 231° |
| 2026-04-16 02:56 | 30.23822 | 120.42100 | 28 ft | 2 kts | 231° |
| 2026-04-16 02:56 | 30.23831 | 120.42113 | 28 ft | 2 kts | 231° |
| 2026-04-16 02:56 | 30.23840 | 120.42126 | 28 ft | 2 kts | 231° |
| 2026-04-16 02:57 | 30.23848 | 120.42140 | 28 ft | 2 kts | 257° |
| 2026-04-16 02:57 | 30.23849 | 120.42156 | 28 ft | 2 kts | 277° |
| 2026-04-16 02:57 | 30.23844 | 120.42172 | 28 ft | 2 kts | 302° |
| 2026-04-16 02:57 | 30.23834 | 120.42184 | 28 ft | 1 kts | 326° |
| 2026-04-16 02:58 | 30.23828 | 120.42189 | 28 ft | 0 kts | 335° |
| 2026-04-16 02:58 | 30.23825 | 120.42190 | 28 ft | 0 kts | 333° |
| 2026-04-16 03:02 | 30.23848 | 120.42177 | 28 ft | 10 kts | 333° |
| 2026-04-16 03:02 | 30.23922 | 120.42133 | 28 ft | 10 kts | 333° |
| 2026-04-16 03:02 | 30.23982 | 120.42110 | 28 ft | 7 kts | 15° |
| 2026-04-16 03:02 | 30.24013 | 120.42149 | 28 ft | 6 kts | 64° |
| 2026-04-16 03:03 | 30.24039 | 120.42176 | 28 ft | 5 kts | 13° |
| 2026-04-16 03:03 | 30.24071 | 120.42172 | 28 ft | 5 kts | 335° |
| 2026-04-16 03:03 | 30.24095 | 120.42119 | 28 ft | 8 kts | 260° |
| 2026-04-16 03:03 | 30.24074 | 120.42063 | 28 ft | 7 kts | 243° |
| 2026-04-16 03:04 | 30.24055 | 120.42019 | 28 ft | 6 kts | 243° |
| 2026-04-16 03:04 | 30.24039 | 120.41983 | 28 ft | 4 kts | 243° |
| 2026-04-16 03:04 | 30.24025 | 120.41951 | 28 ft | 3 kts | 243° |
| 2026-04-16 03:04 | 30.24014 | 120.41926 | 28 ft | 3 kts | 243° |
| 2026-04-16 03:05 | 30.24001 | 120.41895 | 28 ft | 7 kts | 242° |
| 2026-04-16 03:05 | 30.23966 | 120.41818 | 28 ft | 12 kts | 243° |
| 2026-04-16 03:05 | 30.23927 | 120.41729 | 28 ft | 11 kts | 243° |
| 2026-04-16 03:05 | 30.23894 | 120.41653 | 28 ft | 10 kts | 243° |
| 2026-04-16 03:06 | 30.23864 | 120.41586 | 28 ft | 9 kts | 243° |
| 2026-04-16 03:06 | 30.23835 | 120.41521 | 28 ft | 11 kts | 243° |
| 2026-04-16 03:06 | 30.23747 | 120.41322 | 28 ft | 17 kts | 242° |
| 2026-04-16 03:07 | 30.23692 | 120.41199 | 28 ft | 19 kts | 243° |
| 2026-04-16 03:07 | 30.23637 | 120.41074 | 28 ft | 17 kts | 242° |
| 2026-04-16 03:07 | 30.23613 | 120.40977 | 28 ft | 9 kts | 296° |
| 2026-04-16 03:07 | 30.23660 | 120.40938 | 28 ft | 7 kts | 332° |
| 2026-04-16 03:08 | 30.23696 | 120.40916 | 28 ft | 0 kts | 333° |
| 2026-04-16 03:10 | 30.23705 | 120.40911 | 28 ft | 4 kts | 333° |
| 2026-04-16 03:10 | 30.23717 | 120.40904 | 28 ft | 0 kts | 333° |
| 2026-04-16 03:12 | 30.23737 | 120.40892 | 28 ft | 12 kts | 333° |
| 2026-04-16 03:12 | 30.23822 | 120.40859 | 28 ft | 12 kts | 19° |
| 2026-04-16 03:12 | 30.23857 | 120.40913 | 28 ft | 3 kts | 62° |
| 2026-04-16 03:13 | 30.23906 | 120.41024 | 28 ft | 48 kts | 63° |
| 2026-04-16 03:13 | 30.24169 | 120.41620 | 28 ft | 122 kts | 63° |
| 2026-04-16 03:13 | 30.24651 | 120.42703 | 92 ft | 176 kts | 64° |
| 2026-04-16 03:13 | 30.25204 | 120.43905 | 1061 ft | 168 kts | 62° |
| 2026-04-16 03:14 | 30.25770 | 120.45088 | 1784 ft | 174 kts | 64° |
| 2026-04-16 03:14 | 30.26353 | 120.46351 | 2325 ft | 184 kts | 66° |
| 2026-04-16 03:14 | 30.26986 | 120.47681 | 2795 ft | 199 kts | 56° |
| 2026-04-16 03:14 | 30.28124 | 120.48660 | 3194 ft | 219 kts | 19° |
| 2026-04-16 03:15 | 30.29682 | 120.48650 | 3645 ft | 234 kts | 345° |
| 2026-04-16 03:15 | 30.31120 | 120.47864 | 4466 ft | 230 kts | 319° |
| 2026-04-16 03:15 | 30.32059 | 120.46667 | 5181 ft | 230 kts | 299° |
| 2026-04-16 03:15 | 30.32728 | 120.44905 | 5973 ft | 232 kts | 282° |
| 2026-04-16 03:16 | 30.32872 | 120.43055 | 6591 ft | 240 kts | 259° |
| 2026-04-16 03:16 | 30.32316 | 120.41286 | 7235 ft | 248 kts | 242° |
| 2026-04-16 03:16 | 30.31478 | 120.39535 | 7725 ft | 254 kts | 240° |
| 2026-04-16 03:16 | 30.30619 | 120.37741 | 8133 ft | 273 kts | 242° |
| 2026-04-16 03:17 | 30.29727 | 120.35787 | 8951 ft | 277 kts | 243° |
| 2026-04-16 03:17 | 30.28966 | 120.33845 | 9728 ft | 280 kts | 250° |
| 2026-04-16 03:17 | 30.28560 | 120.31676 | 10420 ft | 287 kts | 265° |
| 2026-04-16 03:17 | 30.28681 | 120.29360 | 10861 ft | 304 kts | 279° |
| 2026-04-16 03:18 | 30.29284 | 120.27007 | 11327 ft | 320 kts | 290° |
| 2026-04-16 03:18 | 30.30363 | 120.24768 | 11725 ft | 338 kts | 306° |
| 2026-04-16 03:18 | 30.32120 | 120.22889 | 12124 ft | 357 kts | 324° |
| 2026-04-16 03:18 | 30.34375 | 120.21551 | 12491 ft | 374 kts | 333° |
| 2026-04-16 03:19 | 30.36773 | 120.20359 | 12922 ft | 386 kts | 334° |
| 2026-04-16 03:19 | 30.39246 | 120.19162 | 13653 ft | 388 kts | 334° |
| 2026-04-16 03:19 | 30.41732 | 120.17953 | 14338 ft | 391 kts | 334° |
| 2026-04-16 03:19 | 30.44264 | 120.16708 | 15011 ft | 394 kts | 334° |
| 2026-04-16 03:20 | 30.46769 | 120.15399 | 15664 ft | 396 kts | 331° |
| 2026-04-16 03:20 | 30.49198 | 120.13873 | 16219 ft | 399 kts | 325° |
| 2026-04-16 03:20 | 30.51506 | 120.12137 | 16836 ft | 400 kts | 322° |
| 2026-04-16 03:20 | 30.53782 | 120.10255 | 17429 ft | 402 kts | 320° |
| 2026-04-16 03:21 | 30.56036 | 120.08318 | 17972 ft | 406 kts | 319° |
| 2026-04-16 03:21 | 30.58274 | 120.06376 | 18558 ft | 408 kts | 319° |
| 2026-04-16 03:21 | 30.60539 | 120.04419 | 19117 ft | 411 kts | 319° |
| 2026-04-16 03:21 | 30.62833 | 120.02451 | 19687 ft | 413 kts | 320° |
| 2026-04-16 03:22 | 30.65138 | 120.00485 | 20264 ft | 415 kts | 320° |
| 2026-04-16 03:22 | 30.67486 | 119.98488 | 20707 ft | 419 kts | 319° |
| 2026-04-16 03:22 | 30.69793 | 119.96529 | 21240 ft | 421 kts | 320° |
| 2026-04-16 03:22 | 30.72176 | 119.94505 | 21749 ft | 424 kts | 320° |
| 2026-04-16 03:23 | 30.74567 | 119.92475 | 22207 ft | 427 kts | 320° |
| 2026-04-16 03:23 | 30.76955 | 119.90446 | 22721 ft | 429 kts | 319° |
| 2026-04-16 03:23 | 30.79361 | 119.88393 | 23217 ft | 430 kts | 319° |
| 2026-04-16 03:23 | 30.81786 | 119.86317 | 23680 ft | 433 kts | 319° |
| 2026-04-16 03:24 | 30.84223 | 119.84222 | 24113 ft | 436 kts | 319° |
| 2026-04-16 03:24 | 30.86658 | 119.82128 | 24605 ft | 438 kts | 319° |
| 2026-04-16 03:24 | 30.89082 | 119.80042 | 25086 ft | 439 kts | 319° |
| 2026-04-16 03:24 | 30.91543 | 119.77922 | 25571 ft | 441 kts | 318° |
| 2026-04-16 03:25 | 30.94026 | 119.75784 | 26044 ft | 442 kts | 318° |
| 2026-04-16 03:25 | 30.96497 | 119.73654 | 26441 ft | 445 kts | 318° |
| 2026-04-16 03:25 | 30.98959 | 119.71535 | 27137 ft | 440 kts | 317° |
| 2026-04-16 03:25 | 31.01393 | 119.69439 | 27509 ft | 439 kts | 317° |
| 2026-04-16 03:26 | 31.03853 | 119.67317 | 27577 ft | 438 kts | 317° |
| 2026-04-16 03:26 | 31.06325 | 119.65184 | 27580 ft | 437 kts | 317° |
| 2026-04-16 03:26 | 31.08750 | 119.63089 | 27575 ft | 435 kts | 317° |
| 2026-04-16 03:26 | 31.10778 | 119.61335 | 27578 ft | 436 kts | 317° |
| 2026-04-16 03:27 | 31.13554 | 119.58933 | 27580 ft | 434 kts | 317° |
| 2026-04-16 03:27 | 31.15994 | 119.56820 | 27577 ft | 435 kts | 317° |
| 2026-04-16 03:27 | 31.18408 | 119.54725 | 27576 ft | 436 kts | 317° |
| 2026-04-16 03:27 | 31.20869 | 119.52589 | 27577 ft | 438 kts | 317° |
| 2026-04-16 03:28 | 31.23295 | 119.50485 | 27577 ft | 435 kts | 317° |
| 2026-04-16 03:28 | 31.25735 | 119.48367 | 27573 ft | 435 kts | 317° |
| 2026-04-16 03:28 | 31.28161 | 119.46257 | 27574 ft | 438 kts | 317° |
| 2026-04-16 03:28 | 31.30600 | 119.44134 | 27570 ft | 437 kts | 317° |
| 2026-04-16 03:29 | 31.33033 | 119.42019 | 27574 ft | 435 kts | 317° |
| 2026-04-16 03:29 | 31.35485 | 119.39887 | 27570 ft | 437 kts | 317° |
| 2026-04-16 03:29 | 31.37913 | 119.37772 | 27563 ft | 439 kts | 317° |
| 2026-04-16 03:29 | 31.40372 | 119.35629 | 27563 ft | 435 kts | 317° |
| 2026-04-16 03:30 | 31.42778 | 119.33531 | 27567 ft | 437 kts | 317° |
| 2026-04-16 03:30 | 31.45237 | 119.31384 | 27566 ft | 436 kts | 317° |
| 2026-04-16 03:30 | 31.47649 | 119.29278 | 27569 ft | 435 kts | 317° |
| 2026-04-16 03:30 | 31.50074 | 119.27158 | 27564 ft | 436 kts | 317° |
| 2026-04-16 03:31 | 31.52505 | 119.25033 | 27563 ft | 437 kts | 317° |
| 2026-04-16 03:31 | 31.54874 | 119.22849 | 27565 ft | 433 kts | 312° |
| 2026-04-16 03:31 | 31.56963 | 119.20326 | 27566 ft | 426 kts | 306° |
| 2026-04-16 03:31 | 31.58845 | 119.17654 | 27562 ft | 423 kts | 302° |
| 2026-04-16 03:32 | 31.60441 | 119.14748 | 27563 ft | 419 kts | 293° |
| 2026-04-16 03:32 | 31.61570 | 119.11619 | 27568 ft | 417 kts | 287° |
| 2026-04-16 03:34 | 31.67742 | 118.89465 | 27562 ft | 410 kts | 267° |
| 2026-04-16 03:34 | 31.67586 | 118.86146 | 27560 ft | 409 kts | 265° |
| 2026-04-16 03:34 | 31.67383 | 118.82787 | 27560 ft | 410 kts | 265° |
| 2026-04-16 03:34 | 31.67174 | 118.79481 | 27561 ft | 409 kts | 265° |
| 2026-04-16 03:35 | 31.66967 | 118.76144 | 27563 ft | 409 kts | 265° |
| 2026-04-16 03:35 | 31.66769 | 118.72859 | 27563 ft | 407 kts | 265° |
| 2026-04-16 03:35 | 31.66606 | 118.69521 | 27562 ft | 408 kts | 267° |
| 2026-04-16 03:35 | 31.66552 | 118.66177 | 27560 ft | 409 kts | 268° |
| 2026-04-16 03:36 | 31.66561 | 118.62857 | 27561 ft | 410 kts | 269° |
| 2026-04-16 03:36 | 31.66592 | 118.59515 | 27561 ft | 408 kts | 269° |
| 2026-04-16 03:36 | 31.66625 | 118.56187 | 27560 ft | 407 kts | 269° |
| 2026-04-16 03:36 | 31.66650 | 118.52879 | 27561 ft | 410 kts | 269° |
| 2026-04-16 03:37 | 31.66670 | 118.49522 | 27563 ft | 409 kts | 269° |
| 2026-04-16 03:37 | 31.66682 | 118.46199 | 27561 ft | 407 kts | 269° |
| 2026-04-16 03:37 | 31.66691 | 118.42892 | 27560 ft | 407 kts | 269° |
| 2026-04-16 03:37 | 31.66696 | 118.39586 | 27560 ft | 408 kts | 268° |
| 2026-04-16 03:38 | 31.66697 | 118.36277 | 27561 ft | 407 kts | 269° |
| 2026-04-16 03:38 | 31.66695 | 118.33029 | 27560 ft | 407 kts | 268° |
| 2026-04-16 03:38 | 31.66690 | 118.29723 | 27561 ft | 407 kts | 268° |
| 2026-04-16 03:38 | 31.66685 | 118.26406 | 27560 ft | 408 kts | 268° |
| 2026-04-16 03:39 | 31.66680 | 118.23060 | 27560 ft | 407 kts | 268° |
| 2026-04-16 03:39 | 31.66675 | 118.19759 | 27562 ft | 407 kts | 268° |
| 2026-04-16 03:39 | 31.66622 | 118.16451 | 27559 ft | 407 kts | 265° |
| 2026-04-16 03:39 | 31.66406 | 118.13122 | 27556 ft | 408 kts | 263° |
| 2026-04-16 03:40 | 31.66096 | 118.09849 | 27556 ft | 406 kts | 262° |
| 2026-04-16 03:40 | 31.65750 | 118.06575 | 27558 ft | 405 kts | 262° |
| 2026-04-16 03:40 | 31.65399 | 118.03303 | 27557 ft | 406 kts | 262° |
| 2026-04-16 03:40 | 31.65051 | 118.00002 | 27560 ft | 406 kts | 262° |
| 2026-04-16 03:41 | 31.64714 | 117.96733 | 27562 ft | 406 kts | 262° |
| 2026-04-16 03:41 | 31.64388 | 117.93486 | 27562 ft | 405 kts | 262° |
| 2026-04-16 03:41 | 31.64059 | 117.90167 | 27562 ft | 406 kts | 262° |
| 2026-04-16 03:41 | 31.63740 | 117.86930 | 27562 ft | 405 kts | 262° |
| 2026-04-16 03:42 | 31.63420 | 117.83659 | 27564 ft | 404 kts | 262° |
| 2026-04-16 03:42 | 31.63101 | 117.80394 | 27562 ft | 403 kts | 262° |
| 2026-04-16 03:42 | 31.62781 | 117.77118 | 27561 ft | 405 kts | 262° |
| 2026-04-16 03:42 | 31.62460 | 117.73856 | 27558 ft | 406 kts | 262° |
| 2026-04-16 03:43 | 31.62131 | 117.70531 | 27554 ft | 406 kts | 262° |
| 2026-04-16 03:43 | 31.61810 | 117.67275 | 27556 ft | 403 kts | 262° |
| 2026-04-16 03:43 | 31.61487 | 117.64013 | 27556 ft | 403 kts | 262° |
| 2026-04-16 03:43 | 31.61163 | 117.60751 | 27555 ft | 406 kts | 262° |
| 2026-04-16 03:44 | 31.60834 | 117.57499 | 27552 ft | 404 kts | 261° |
| 2026-04-16 03:44 | 31.60393 | 117.54236 | 27548 ft | 403 kts | 258° |
| 2026-04-16 03:44 | 31.59841 | 117.50999 | 27546 ft | 404 kts | 257° |
| 2026-04-16 03:44 | 31.59247 | 117.47802 | 27544 ft | 403 kts | 257° |
| 2026-04-16 03:45 | 31.58643 | 117.44611 | 27543 ft | 405 kts | 257° |
| 2026-04-16 03:45 | 31.58035 | 117.41379 | 27543 ft | 404 kts | 257° |
| 2026-04-16 03:45 | 31.57434 | 117.38150 | 27540 ft | 403 kts | 257° |
| 2026-04-16 03:45 | 31.56852 | 117.35000 | 27542 ft | 404 kts | 257° |
| 2026-04-16 03:46 | 31.56229 | 117.32063 | 27543 ft | 403 kts | 253° |
| 2026-04-16 03:46 | 31.55341 | 117.28919 | 27544 ft | 404 kts | 248° |
| 2026-04-16 03:46 | 31.54199 | 117.25932 | 27545 ft | 402 kts | 244° |
| 2026-04-16 03:46 | 31.52894 | 117.23072 | 27542 ft | 403 kts | 242° |
| 2026-04-16 03:47 | 31.51478 | 117.20200 | 27542 ft | 404 kts | 240° |
| 2026-04-16 03:47 | 31.50057 | 117.17376 | 27541 ft | 405 kts | 240° |
| 2026-04-16 03:47 | 31.48630 | 117.14548 | 27542 ft | 406 kts | 241° |
| 2026-04-16 03:47 | 31.47185 | 117.11681 | 27546 ft | 405 kts | 240° |
| 2026-04-16 03:48 | 31.45767 | 117.08865 | 27544 ft | 405 kts | 240° |
| 2026-04-16 03:48 | 31.44334 | 117.06014 | 27547 ft | 406 kts | 240° |
| 2026-04-16 03:48 | 31.42909 | 117.03172 | 27549 ft | 406 kts | 240° |
| 2026-04-16 03:48 | 31.41484 | 117.00327 | 27544 ft | 404 kts | 241° |
| 2026-04-16 03:49 | 31.40065 | 116.97492 | 27545 ft | 406 kts | 240° |
| 2026-04-16 03:49 | 31.38634 | 116.94636 | 27549 ft | 405 kts | 240° |
| 2026-04-16 03:49 | 31.37223 | 116.91820 | 27549 ft | 405 kts | 240° |
| 2026-04-16 03:49 | 31.35786 | 116.88954 | 27549 ft | 405 kts | 240° |
| 2026-04-16 03:50 | 31.34372 | 116.86137 | 27549 ft | 407 kts | 240° |
| 2026-04-16 03:50 | 31.32939 | 116.83282 | 27552 ft | 405 kts | 240° |
| 2026-04-16 03:50 | 31.31504 | 116.80426 | 27552 ft | 404 kts | 241° |
| 2026-04-16 03:50 | 31.30082 | 116.77594 | 27551 ft | 405 kts | 240° |
| 2026-04-16 03:51 | 31.28656 | 116.74760 | 27553 ft | 405 kts | 240° |
| 2026-04-16 03:51 | 31.27236 | 116.71941 | 27553 ft | 404 kts | 240° |
| 2026-04-16 03:51 | 31.25815 | 116.69119 | 27557 ft | 404 kts | 240° |
| 2026-04-16 03:51 | 31.24386 | 116.66285 | 27560 ft | 403 kts | 240° |
| 2026-04-16 03:52 | 31.22956 | 116.63454 | 27559 ft | 404 kts | 241° |
| 2026-04-16 03:52 | 31.21548 | 116.60666 | 27570 ft | 404 kts | 240° |
| 2026-04-16 03:52 | 31.20123 | 116.57845 | 27576 ft | 403 kts | 240° |
| 2026-04-16 03:52 | 31.18681 | 116.54999 | 27580 ft | 403 kts | 240° |
| 2026-04-16 03:53 | 31.17252 | 116.52171 | 27582 ft | 403 kts | 240° |
| 2026-04-16 03:53 | 31.15838 | 116.49374 | 27585 ft | 405 kts | 240° |
| 2026-04-16 03:53 | 31.14403 | 116.46534 | 27587 ft | 404 kts | 240° |
| 2026-04-16 03:53 | 31.12981 | 116.43722 | 27589 ft | 402 kts | 240° |
| 2026-04-16 03:54 | 31.11565 | 116.40933 | 27591 ft | 403 kts | 240° |
| 2026-04-16 03:54 | 31.10128 | 116.38105 | 27591 ft | 403 kts | 240° |
| 2026-04-16 03:54 | 31.08691 | 116.35278 | 27595 ft | 403 kts | 240° |
| 2026-04-16 03:54 | 31.07482 | 116.32903 | 27593 ft | 404 kts | 240° |
| 2026-04-16 03:55 | 31.05954 | 116.29900 | 27592 ft | 403 kts | 240° |
| 2026-04-16 03:55 | 31.04534 | 116.27120 | 27594 ft | 404 kts | 240° |
| 2026-04-16 03:55 | 31.03085 | 116.24277 | 27592 ft | 403 kts | 239° |
| 2026-04-16 03:55 | 31.01663 | 116.21487 | 27593 ft | 402 kts | 239° |
| 2026-04-16 03:56 | 31.00232 | 116.18684 | 27594 ft | 403 kts | 240° |
| 2026-04-16 03:56 | 30.98792 | 116.15867 | 27596 ft | 401 kts | 239° |
| 2026-04-16 03:56 | 30.97377 | 116.13094 | 27597 ft | 403 kts | 240° |
| 2026-04-16 03:56 | 30.95939 | 116.10284 | 27595 ft | 402 kts | 240° |
| 2026-04-16 03:57 | 30.94504 | 116.07480 | 27592 ft | 402 kts | 240° |
| 2026-04-16 03:57 | 30.93069 | 116.04680 | 27592 ft | 401 kts | 240° |
| 2026-04-16 03:57 | 30.91636 | 116.01886 | 27587 ft | 402 kts | 240° |
| 2026-04-16 03:57 | 30.90202 | 115.99099 | 27589 ft | 402 kts | 239° |
| 2026-04-16 03:58 | 30.88911 | 115.96587 | 27584 ft | 402 kts | 239° |
| 2026-04-16 03:58 | 30.87461 | 115.93765 | 27592 ft | 401 kts | 240° |
| 2026-04-16 03:58 | 30.86025 | 115.90971 | 27582 ft | 403 kts | 239° |
| 2026-04-16 03:58 | 30.84503 | 115.88226 | 27584 ft | 401 kts | 236° |
| 2026-04-16 03:59 | 30.82867 | 115.85623 | 27578 ft | 400 kts | 234° |
| 2026-04-16 03:59 | 30.81155 | 115.83057 | 27571 ft | 400 kts | 233° |
| 2026-04-16 03:59 | 30.79417 | 115.80504 | 27570 ft | 401 kts | 233° |
| 2026-04-16 03:59 | 30.77695 | 115.77979 | 27567 ft | 401 kts | 233° |
| 2026-04-16 04:00 | 30.75964 | 115.75424 | 27567 ft | 400 kts | 233° |
| 2026-04-16 04:00 | 30.74234 | 115.72854 | 27566 ft | 402 kts | 233° |
| 2026-04-16 04:00 | 30.72536 | 115.70314 | 27568 ft | 400 kts | 234° |
| 2026-04-16 04:00 | 30.70821 | 115.67737 | 27565 ft | 399 kts | 234° |
| 2026-04-16 04:01 | 30.69128 | 115.65185 | 27567 ft | 401 kts | 234° |
| 2026-04-16 04:01 | 30.67432 | 115.62627 | 27570 ft | 398 kts | 234° |
| 2026-04-16 04:01 | 30.65733 | 115.60068 | 27568 ft | 398 kts | 234° |
| 2026-04-16 04:01 | 30.64038 | 115.57519 | 27572 ft | 400 kts | 234° |
| 2026-04-16 04:02 | 30.62349 | 115.54981 | 27572 ft | 400 kts | 234° |
| 2026-04-16 04:02 | 30.60652 | 115.52424 | 27574 ft | 399 kts | 234° |
| 2026-04-16 04:02 | 30.58946 | 115.49854 | 27574 ft | 399 kts | 233° |
| 2026-04-16 04:02 | 30.57260 | 115.47320 | 27570 ft | 398 kts | 234° |
| 2026-04-16 04:03 | 30.55582 | 115.44795 | 27568 ft | 397 kts | 234° |
| 2026-04-16 04:03 | 30.53869 | 115.42226 | 27574 ft | 397 kts | 233° |
| 2026-04-16 04:03 | 30.52161 | 115.39713 | 27570 ft | 399 kts | 232° |
| 2026-04-16 04:03 | 30.50310 | 115.37319 | 27567 ft | 399 kts | 226° |
| 2026-04-16 04:04 | 30.48133 | 115.35317 | 27571 ft | 404 kts | 217° |
| 2026-04-16 04:04 | 30.46143 | 115.34026 | 27568 ft | 409 kts | 210° |
| 2026-04-16 04:04 | 30.43482 | 115.32789 | 27571 ft | 412 kts | 204° |
| 2026-04-16 04:04 | 30.40718 | 115.31872 | 27570 ft | 416 kts | 198° |
| 2026-04-16 04:05 | 30.37843 | 115.31338 | 27568 ft | 422 kts | 191° |
| 2026-04-16 04:05 | 30.34872 | 115.31402 | 27565 ft | 434 kts | 180° |
| 2026-04-16 04:05 | 30.31827 | 115.32056 | 27564 ft | 442 kts | 172° |
| 2026-04-16 04:05 | 30.28866 | 115.33102 | 27569 ft | 448 kts | 169° |
| 2026-04-16 04:06 | 30.25933 | 115.34302 | 27567 ft | 450 kts | 167° |
| 2026-04-16 04:06 | 30.22974 | 115.35592 | 27565 ft | 452 kts | 167° |
| 2026-04-16 04:06 | 30.20021 | 115.36914 | 27559 ft | 452 kts | 166° |
| 2026-04-16 04:06 | 30.17104 | 115.38238 | 27561 ft | 452 kts | 166° |
| 2026-04-16 04:07 | 30.14189 | 115.39561 | 27560 ft | 452 kts | 166° |
| 2026-04-16 04:07 | 30.08313 | 115.42206 | 27561 ft | 450 kts | 166° |
| 2026-04-16 04:07 | 30.05393 | 115.43509 | 27561 ft | 452 kts | 166° |
| 2026-04-16 04:08 | 30.02434 | 115.44824 | 27558 ft | 452 kts | 166° |
| 2026-04-16 04:08 | 29.99494 | 115.46130 | 27564 ft | 451 kts | 167° |
| 2026-04-16 04:08 | 29.96589 | 115.47421 | 27555 ft | 449 kts | 167° |
| 2026-04-16 04:08 | 29.93682 | 115.48707 | 27560 ft | 450 kts | 167° |
| 2026-04-16 04:09 | 29.90743 | 115.49996 | 27554 ft | 452 kts | 166° |
| 2026-04-16 04:09 | 29.89048 | 115.50738 | 27553 ft | 453 kts | 167° |
| 2026-04-16 04:09 | 29.86113 | 115.52025 | 27553 ft | 452 kts | 166° |
| 2026-04-16 04:09 | 29.83220 | 115.53296 | 27552 ft | 452 kts | 166° |
| 2026-04-16 04:10 | 29.80321 | 115.54570 | 27407 ft | 456 kts | 166° |
| 2026-04-16 04:10 | 29.77364 | 115.55868 | 27151 ft | 455 kts | 166° |
| 2026-04-16 04:10 | 29.74417 | 115.57162 | 26898 ft | 455 kts | 166° |
| 2026-04-16 04:10 | 29.71434 | 115.58472 | 26641 ft | 455 kts | 166° |
| 2026-04-16 04:11 | 29.68516 | 115.59753 | 26387 ft | 454 kts | 166° |
| 2026-04-16 04:11 | 29.65573 | 115.61046 | 26133 ft | 451 kts | 166° |
| 2026-04-16 04:11 | 29.62615 | 115.62342 | 25873 ft | 449 kts | 166° |
| 2026-04-16 04:11 | 29.59683 | 115.63624 | 25555 ft | 451 kts | 166° |
| 2026-04-16 04:12 | 29.56756 | 115.64903 | 24960 ft | 450 kts | 165° |
| 2026-04-16 04:12 | 29.54768 | 115.65771 | 24497 ft | 448 kts | 166° |
| 2026-04-16 04:12 | 29.51898 | 115.67025 | 23821 ft | 445 kts | 165° |
| 2026-04-16 04:12 | 29.49055 | 115.68269 | 23146 ft | 442 kts | 165° |
| 2026-04-16 04:13 | 29.46173 | 115.69531 | 22464 ft | 439 kts | 165° |
| 2026-04-16 04:13 | 29.43308 | 115.70786 | 21773 ft | 437 kts | 165° |
| 2026-04-16 04:13 | 29.40473 | 115.72021 | 21075 ft | 435 kts | 164° |
| 2026-04-16 04:13 | 29.37657 | 115.73243 | 20387 ft | 433 kts | 164° |
| 2026-04-16 04:14 | 29.34831 | 115.74463 | 19685 ft | 431 kts | 164° |
| 2026-04-16 04:14 | 29.32018 | 115.75654 | 18971 ft | 428 kts | 166° |
| 2026-04-16 04:14 | 29.29228 | 115.76715 | 18284 ft | 425 kts | 167° |
| 2026-04-16 04:14 | 29.26412 | 115.77707 | 17590 ft | 422 kts | 168° |
| 2026-04-16 04:15 | 29.23616 | 115.78690 | 16890 ft | 420 kts | 167° |
| 2026-04-16 04:15 | 29.20818 | 115.79653 | 16199 ft | 418 kts | 168° |
| 2026-04-16 04:15 | 29.18021 | 115.80598 | 15476 ft | 416 kts | 168° |
| 2026-04-16 04:15 | 29.15267 | 115.81539 | 14797 ft | 413 kts | 167° |
| 2026-04-16 04:16 | 29.12502 | 115.82354 | 14105 ft | 406 kts | 174° |
| 2026-04-16 04:16 | 29.09724 | 115.82620 | 13428 ft | 396 kts | 187° |
| 2026-04-16 04:16 | 29.07050 | 115.82028 | 12783 ft | 384 kts | 202° |
| 2026-04-16 04:16 | 29.04559 | 115.80906 | 12118 ft | 379 kts | 206° |
| 2026-04-16 04:17 | 29.02165 | 115.79722 | 11468 ft | 370 kts | 206° |
| 2026-04-16 04:17 | 28.99844 | 115.78553 | 10958 ft | 356 kts | 206° |
| 2026-04-16 04:17 | 28.97625 | 115.77439 | 10678 ft | 337 kts | 206° |
| 2026-04-16 04:17 | 28.95531 | 115.76420 | 10591 ft | 314 kts | 206° |
| 2026-04-16 04:18 | 28.93574 | 115.75468 | 10491 ft | 295 kts | 206° |
| 2026-04-16 04:18 | 28.91723 | 115.74567 | 10372 ft | 285 kts | 207° |
| 2026-04-16 04:18 | 28.89999 | 115.73725 | 10250 ft | 286 kts | 206° |
| 2026-04-16 04:18 | 28.89048 | 115.73262 | 10167 ft | 279 kts | 206° |
| 2026-04-16 04:19 | 28.86205 | 115.71883 | 9637 ft | 268 kts | 206° |
| 2026-04-16 04:19 | 28.84185 | 115.70906 | 9237 ft | 261 kts | 206° |
| 2026-04-16 04:19 | 28.82014 | 115.69859 | 8819 ft | 262 kts | 206° |
| 2026-04-16 04:20 | 28.80343 | 115.69049 | 8495 ft | 266 kts | 206° |
| 2026-04-16 04:20 | 28.78649 | 115.68228 | 8168 ft | 261 kts | 206° |
| 2026-04-16 04:20 | 28.76989 | 115.67429 | 7846 ft | 255 kts | 206° |
| 2026-04-16 04:20 | 28.75339 | 115.66643 | 7523 ft | 257 kts | 206° |
| 2026-04-16 04:21 | 28.73679 | 115.65845 | 7206 ft | 260 kts | 206° |
| 2026-04-16 04:21 | 28.72045 | 115.65060 | 6877 ft | 255 kts | 205° |
| 2026-04-16 04:21 | 28.70430 | 115.64294 | 6660 ft | 244 kts | 205° |
| 2026-04-16 04:21 | 28.68914 | 115.63581 | 6586 ft | 229 kts | 205° |
| 2026-04-16 04:22 | 28.67411 | 115.63081 | 6516 ft | 216 kts | 189° |
| 2026-04-16 04:22 | 28.65964 | 115.63336 | 6430 ft | 213 kts | 159° |
| 2026-04-16 04:22 | 28.64760 | 115.64286 | 6228 ft | 210 kts | 139° |
| 2026-04-16 04:22 | 28.63867 | 115.65588 | 5967 ft | 204 kts | 120° |
| 2026-04-16 04:23 | 28.63319 | 115.67049 | 5751 ft | 199 kts | 113° |
| 2026-04-16 04:23 | 28.62836 | 115.68520 | 5533 ft | 200 kts | 109° |
| 2026-04-16 04:23 | 28.62653 | 115.70106 | 5315 ft | 201 kts | 81° |
| 2026-04-16 04:23 | 28.63146 | 115.71594 | 5108 ft | 201 kts | 61° |
| 2026-04-16 04:24 | 28.63779 | 115.72990 | 4884 ft | 197 kts | 64° |
| 2026-04-16 04:24 | 28.64329 | 115.74418 | 4702 ft | 198 kts | 67° |
| 2026-04-16 04:24 | 28.64841 | 115.75822 | 4567 ft | 196 kts | 67° |
| 2026-04-16 04:24 | 28.65361 | 115.77221 | 4431 ft | 196 kts | 67° |
| 2026-04-16 04:25 | 28.65899 | 115.78655 | 4245 ft | 196 kts | 67° |
| 2026-04-16 04:25 | 28.66466 | 115.79999 | 4106 ft | 192 kts | 52° |
| 2026-04-16 04:25 | 28.67503 | 115.80964 | 3948 ft | 193 kts | 26° |
| 2026-04-16 04:25 | 28.68708 | 115.81630 | 3627 ft | 192 kts | 24° |
| 2026-04-16 04:26 | 28.69900 | 115.82255 | 3371 ft | 186 kts | 23° |
| 2026-04-16 04:26 | 28.71085 | 115.82847 | 3119 ft | 184 kts | 22° |
| 2026-04-16 04:26 | 28.72262 | 115.83418 | 2869 ft | 182 kts | 22° |
| 2026-04-16 04:26 | 28.73431 | 115.83984 | 2622 ft | 180 kts | 21° |
| 2026-04-16 04:27 | 28.74579 | 115.84536 | 2373 ft | 176 kts | 21° |
| 2026-04-16 04:27 | 28.75698 | 115.85075 | 2135 ft | 170 kts | 21° |
| 2026-04-16 04:27 | 28.76757 | 115.85583 | 1933 ft | 157 kts | 21° |
| 2026-04-16 04:27 | 28.77734 | 115.86059 | 1700 ft | 148 kts | 22° |
| 2026-04-16 04:28 | 28.78692 | 115.86517 | 1516 ft | 147 kts | 22° |
| 2026-04-16 04:28 | 28.79645 | 115.86970 | 1316 ft | 147 kts | 21° |
| 2026-04-16 04:28 | 28.80589 | 115.87422 | 1120 ft | 146 kts | 22° |
| 2026-04-16 04:28 | 28.81518 | 115.87873 | 927 ft | 146 kts | 21° |
| 2026-04-16 04:29 | 28.82451 | 115.88324 | 738 ft | 145 kts | 21° |
| 2026-04-16 04:29 | 28.83395 | 115.88776 | 534 ft | 145 kts | 21° |
| 2026-04-16 04:29 | 28.84329 | 115.89219 | 318 ft | 145 kts | 21° |
| 2026-04-16 04:29 | 28.85359 | 115.89716 | 421 ft | 176 kts | 21° |
| 2026-04-16 04:30 | 28.86474 | 115.90247 | 1318 ft | 187 kts | 20° |
| 2026-04-16 04:30 | 28.87795 | 115.90868 | 1986 ft | 217 kts | 22° |
| 2026-04-16 04:30 | 28.89211 | 115.91587 | 2315 ft | 230 kts | 23° |
| 2026-04-16 04:30 | 28.90755 | 115.92080 | 2297 ft | 228 kts | 359° |
| 2026-04-16 04:31 | 28.92228 | 115.91512 | 2292 ft | 226 kts | 318° |
| 2026-04-16 04:31 | 28.93112 | 115.90048 | 2293 ft | 227 kts | 291° |
| 2026-04-16 04:31 | 28.93652 | 115.88342 | 2285 ft | 226 kts | 290° |
| 2026-04-16 04:31 | 28.94188 | 115.86639 | 2292 ft | 227 kts | 287° |
| 2026-04-16 04:32 | 28.94262 | 115.84873 | 2284 ft | 228 kts | 253° |
| 2026-04-16 04:32 | 28.93335 | 115.83392 | 2291 ft | 231 kts | 215° |
| 2026-04-16 04:32 | 28.91895 | 115.82564 | 2320 ft | 239 kts | 203° |
| 2026-04-16 04:32 | 28.90325 | 115.81844 | 3180 ft | 246 kts | 203° |
| 2026-04-16 04:33 | 28.88783 | 115.81136 | 3984 ft | 244 kts | 203° |
| 2026-04-16 04:33 | 28.87222 | 115.80421 | 3934 ft | 237 kts | 203° |
| 2026-04-16 04:33 | 28.85715 | 115.79730 | 3897 ft | 232 kts | 204° |
| 2026-04-16 04:33 | 28.84189 | 115.79036 | 3899 ft | 233 kts | 203° |
| 2026-04-16 04:34 | 28.82689 | 115.78368 | 3893 ft | 232 kts | 204° |
| 2026-04-16 04:34 | 28.81184 | 115.77701 | 3896 ft | 233 kts | 203° |
| 2026-04-16 04:34 | 28.79679 | 115.77026 | 3897 ft | 233 kts | 203° |
| 2026-04-16 04:34 | 28.78192 | 115.76360 | 3898 ft | 233 kts | 203° |
| 2026-04-16 04:35 | 28.76676 | 115.75680 | 3902 ft | 235 kts | 203° |
| 2026-04-16 04:35 | 28.75108 | 115.74975 | 3896 ft | 250 kts | 203° |
| 2026-04-16 04:35 | 28.73476 | 115.74235 | 3892 ft | 252 kts | 203° |
| 2026-04-16 04:35 | 28.71854 | 115.73502 | 3890 ft | 253 kts | 203° |
| 2026-04-16 04:36 | 28.70190 | 115.72753 | 3889 ft | 253 kts | 203° |
| 2026-04-16 04:36 | 28.68547 | 115.72044 | 3887 ft | 254 kts | 198° |
| 2026-04-16 04:36 | 28.66784 | 115.71967 | 3878 ft | 255 kts | 166° |
| 2026-04-16 04:36 | 28.65343 | 115.73009 | 3883 ft | 243 kts | 129° |
| 2026-04-16 04:37 | 28.64601 | 115.74672 | 3879 ft | 231 kts | 111° |
| 2026-04-16 04:37 | 28.64074 | 115.76372 | 3879 ft | 224 kts | 108° |
| 2026-04-16 04:37 | 28.63925 | 115.78131 | 3877 ft | 226 kts | 76° |
| 2026-04-16 04:37 | 28.64713 | 115.79616 | 3881 ft | 222 kts | 36° |
| 2026-04-16 04:38 | 28.66009 | 115.80421 | 3881 ft | 205 kts | 21° |
| 2026-04-16 04:38 | 28.67290 | 115.81034 | 3883 ft | 197 kts | 21° |
| 2026-04-16 04:38 | 28.68538 | 115.81634 | 3758 ft | 194 kts | 21° |
| 2026-04-16 04:38 | 28.69773 | 115.82230 | 3406 ft | 193 kts | 21° |
| 2026-04-16 04:39 | 28.71010 | 115.82824 | 3128 ft | 188 kts | 21° |
| 2026-04-16 04:39 | 28.72191 | 115.83391 | 2882 ft | 180 kts | 22° |
| 2026-04-16 04:39 | 28.73327 | 115.83938 | 2650 ft | 172 kts | 21° |
| 2026-04-16 04:39 | 28.74402 | 115.84452 | 2415 ft | 160 kts | 21° |
| 2026-04-16 04:40 | 28.75388 | 115.84927 | 2201 ft | 149 kts | 21° |
| 2026-04-16 04:40 | 28.76353 | 115.85390 | 1998 ft | 149 kts | 21° |
| 2026-04-16 04:40 | 28.77306 | 115.85851 | 1801 ft | 147 kts | 21° |
| 2026-04-16 04:40 | 28.78243 | 115.86304 | 1598 ft | 146 kts | 21° |
| 2026-04-16 04:41 | 28.79184 | 115.86760 | 1412 ft | 146 kts | 21° |
| 2026-04-16 04:41 | 28.80127 | 115.87206 | 1208 ft | 146 kts | 21° |
| 2026-04-16 04:41 | 28.81061 | 115.87644 | 1028 ft | 145 kts | 21° |
| 2026-04-16 04:41 | 28.81986 | 115.88092 | 829 ft | 144 kts | 22° |
| 2026-04-16 04:42 | 28.82910 | 115.88545 | 635 ft | 144 kts | 21° |
| 2026-04-16 04:42 | 28.83841 | 115.88996 | 460 ft | 143 kts | 22° |
| 2026-04-16 04:42 | 28.84773 | 115.89424 | 266 ft | 146 kts | 21° |
| 2026-04-16 04:42 | 28.85677 | 115.89871 | 153 ft | 119 kts | 22° |
| 2026-04-16 04:43 | 28.86216 | 115.90131 | 152 ft | 53 kts | 23° |
| 2026-04-16 04:43 | 28.86461 | 115.90268 | 152 ft | 36 kts | 37° |
| 2026-04-16 04:43 | 28.86618 | 115.90469 | 152 ft | 30 kts | 52° |
| 2026-04-16 04:43 | 28.86757 | 115.90614 | 152 ft | 14 kts | 54° |
| 2026-04-16 04:44 | 28.86739 | 115.90679 | 152 ft | 8 kts | 117° |
| 2026-04-16 04:44 | 28.86730 | 115.90702 | 152 ft | 4 kts | 113° |
| 2026-04-16 04:44 | 28.86688 | 115.90816 | 152 ft | 18 kts | 114° |
| 2026-04-16 04:44 | 28.86651 | 115.90929 | 152 ft | 6 kts | 86° |
| 2026-04-16 04:45 | 28.86652 | 115.90944 | 152 ft | 0 kts | 86° |